<?xml version="1.0" encoding="UTF-8" standalone="no" ?>
<gpx xmlns="http://www.topografix.com/GPX/1/1" xmlns:xsi="http://www.w3.org/2001/XMLSchema-instance" xsi:schemaLocation="http://www.topografix.com/GPX/1/1 http://www.topografix.com/GPX/1/1/gpx.xsd" version="1.1" creator="VisuGPX - https://www.visugpx.com">
  <metadata>
    <name>tour du Bayard</name>
    <desc><![CDATA[<p>Heure de départ: 05/20/2021 16:34<br/>Heure d'arrivée: 05/20/2021 20:01<br/>Distance: 8,5 km (03:26)<br/>Temps déplacement: 02:42<br/>Vitesse moyenne: 2,47 km/h<br/>Vitesse moyenne mouv.: 3,15 km/h<br/>Vitesse Max.: 6,89 km/h<br/>Altitude minimale: 352 m<br/>Altitude maximale: 700 m<br/>Vitesse de montée: 265 m/h<br/>Vitesse de descente: -367,7 m/h<br/>Gain d'altitude: 416 m<br/>Perte d'altitude: -459 m<br/>Temps de montée: 01:34<br/>Temps de descente: 01:14<br/></p><hr align="center" width="480" style="height: 2px; width: 517px"/>]]></desc>
  </metadata>
  <trk>
    <name><![CDATA[2021-05-20 16:33]]></name>
    <desc><![CDATA[<p>Heure de départ: 05/20/2021 16:34<br/>Heure d'arrivée: 05/20/2021 20:01<br/>Distance: 8,5 km (03:26)<br/>Temps déplacement: 02:42<br/>Vitesse moyenne: 2,47 km/h<br/>Vitesse moyenne mouv.: 3,15 km/h<br/>Vitesse Max.: 6,89 km/h<br/>Altitude minimale: 352 m<br/>Altitude maximale: 700 m<br/>Vitesse de montée: 265 m/h<br/>Vitesse de descente: -367,7 m/h<br/>Gain d'altitude: 416 m<br/>Perte d'altitude: -459 m<br/>Temps de montée: 01:34<br/>Temps de descente: 01:14<br/></p><hr align="center" width="480" style="height: 2px; width: 517px"/>]]></desc>
    <extensions>
      <line xmlns="http://www.topografix.com/GPX/gpx_style/0/2">
        <color>0000FF</color>
        <width>4</width>
      </line>
    </extensions>
    <trkseg>
      <trkpt lat="45.6752" lon="4.61086">
        <ele>426.84</ele>
        <time>2021-05-20T14:34:18Z</time>
      </trkpt>
      <trkpt lat="45.6752" lon="4.61086">
        <ele>426.84</ele>
        <time>2021-05-20T14:34:18Z</time>
      </trkpt>
      <trkpt lat="45.67305" lon="4.60832">
        <ele>432.1</ele>
      </trkpt>
      <trkpt lat="45.67341" lon="4.60801">
        <ele>436.4</ele>
      </trkpt>
      <trkpt lat="45.6742" lon="4.60968">
        <ele>441.2</ele>
      </trkpt>
      <trkpt lat="45.6752" lon="4.61086">
        <ele>426.84</ele>
        <time>2021-05-20T14:34:18Z</time>
      </trkpt>
      <trkpt lat="45.67551" lon="4.61217">
        <ele>414.7</ele>
        <time>2021-05-20T14:36:16Z</time>
      </trkpt>
      <trkpt lat="45.6752" lon="4.61384">
        <ele>389.84</ele>
        <time>2021-05-20T14:37:47Z</time>
      </trkpt>
      <trkpt lat="45.6762" lon="4.61347">
        <ele>424.09</ele>
        <time>2021-05-20T14:42:17Z</time>
      </trkpt>
      <trkpt lat="45.6769" lon="4.61378">
        <ele>444.71</ele>
        <time>2021-05-20T14:43:51Z</time>
      </trkpt>
      <trkpt lat="45.67781" lon="4.61291">
        <ele>464.2</ele>
        <time>2021-05-20T14:45:42Z</time>
      </trkpt>
      <trkpt lat="45.67825" lon="4.61247">
        <ele>477.4</ele>
      </trkpt>
      <trkpt lat="45.67879" lon="4.61244">
        <ele>471.62</ele>
        <time>2021-05-20T14:48:09Z</time>
      </trkpt>
      <trkpt lat="45.67952" lon="4.61256">
        <ele>474.89</ele>
        <time>2021-05-20T14:50:24Z</time>
      </trkpt>
      <trkpt lat="45.68055" lon="4.6131">
        <ele>465.16</ele>
        <time>2021-05-20T14:51:46Z</time>
      </trkpt>
      <trkpt lat="45.68137" lon="4.61413">
        <ele>482.44</ele>
        <time>2021-05-20T14:56:25Z</time>
      </trkpt>
      <trkpt lat="45.68166" lon="4.61466">
        <ele>487.2</ele>
      </trkpt>
      <trkpt lat="45.68227" lon="4.61427">
        <ele>486.19</ele>
        <time>2021-05-20T14:58:15Z</time>
      </trkpt>
      <trkpt lat="45.68284" lon="4.6136">
        <ele>486.07</ele>
        <time>2021-05-20T15:00:18Z</time>
      </trkpt>
      <trkpt lat="45.68335" lon="4.61227">
        <ele>484.72</ele>
        <time>2021-05-20T15:01:48Z</time>
      </trkpt>
      <trkpt lat="45.6839" lon="4.61092">
        <ele>489.28</ele>
        <time>2021-05-20T15:03:22Z</time>
      </trkpt>
      <trkpt lat="45.684" lon="4.60937">
        <ele>499.9</ele>
        <time>2021-05-20T15:04:48Z</time>
      </trkpt>
      <trkpt lat="45.68457" lon="4.6088">
        <ele>498.77</ele>
        <time>2021-05-20T15:06:09Z</time>
      </trkpt>
      <trkpt lat="45.68488" lon="4.60777">
        <ele>517.1</ele>
        <time>2021-05-20T15:07:17Z</time>
      </trkpt>
      <trkpt lat="45.68448" lon="4.60574">
        <ele>525.9</ele>
      </trkpt>
      <trkpt lat="45.68446" lon="4.6037">
        <ele>525.5</ele>
        <time>2021-05-20T15:08:43Z</time>
      </trkpt>
      <trkpt lat="45.68544" lon="4.60285">
        <ele>538.8</ele>
      </trkpt>
      <trkpt lat="45.68614" lon="4.60097">
        <ele>549.2</ele>
      </trkpt>
      <trkpt lat="45.68679" lon="4.59948">
        <ele>548.9</ele>
        <time>2021-05-20T15:22:21Z</time>
      </trkpt>
      <trkpt lat="45.68745" lon="4.59769">
        <ele>567.8</ele>
        <time>2021-05-20T15:24:05Z</time>
      </trkpt>
      <trkpt lat="45.68815" lon="4.59851">
        <ele>567.3</ele>
        <time>2021-05-20T15:25:43Z</time>
      </trkpt>
      <trkpt lat="45.68893" lon="4.59821">
        <ele>576</ele>
        <time>2021-05-20T15:29:39Z</time>
      </trkpt>
      <trkpt lat="45.68925" lon="4.59631">
        <ele>579.6</ele>
      </trkpt>
      <trkpt lat="45.68945" lon="4.5949">
        <ele>592.6</ele>
        <time>2021-05-20T16:10:28Z</time>
      </trkpt>
      <trkpt lat="45.68906" lon="4.59293">
        <ele>603.7</ele>
        <time>2021-05-20T16:12:24Z</time>
      </trkpt>
      <trkpt lat="45.68754" lon="4.59233">
        <ele>622.1</ele>
        <time>2021-05-20T16:19:14Z</time>
      </trkpt>
      <trkpt lat="45.68832" lon="4.59134">
        <ele>635.4</ele>
        <time>2021-05-20T16:22:14Z</time>
      </trkpt>
      <trkpt lat="45.68835" lon="4.59049">
        <ele>643.9</ele>
      </trkpt>
      <trkpt lat="45.68839" lon="4.58948">
        <ele>655.6</ele>
      </trkpt>
      <trkpt lat="45.6876" lon="4.58825">
        <ele>675.7</ele>
      </trkpt>
      <trkpt lat="45.68703" lon="4.58776">
        <ele>692.3</ele>
        <time>2021-05-20T16:30:48Z</time>
      </trkpt>
      <trkpt lat="45.68669" lon="4.58694">
        <ele>696.4</ele>
      </trkpt>
      <trkpt lat="45.68666" lon="4.58551">
        <ele>710.1</ele>
      </trkpt>
      <trkpt lat="45.68573" lon="4.58404">
        <ele>728.7</ele>
        <time>2021-05-20T16:38:10Z</time>
      </trkpt>
      <trkpt lat="45.68656" lon="4.58367">
        <ele>723.2</ele>
        <time>2021-05-20T16:40:08Z</time>
      </trkpt>
      <trkpt lat="45.68684" lon="4.58161">
        <ele>741.8</ele>
        <time>2021-05-20T16:43:06Z</time>
      </trkpt>
      <trkpt lat="45.68541" lon="4.58228">
        <ele>766.5</ele>
      </trkpt>
      <trkpt lat="45.68522" lon="4.58155">
        <ele>769.8</ele>
      </trkpt>
      <trkpt lat="45.68457" lon="4.58268">
        <ele>766.4</ele>
      </trkpt>
      <trkpt lat="45.68374" lon="4.58346">
        <ele>756.5</ele>
        <time>2021-05-20T16:51:01Z</time>
      </trkpt>
      <trkpt lat="45.68232" lon="4.58516">
        <ele>750.9</ele>
      </trkpt>
      <trkpt lat="45.6812" lon="4.58592">
        <ele>734.1</ele>
        <time>2021-05-20T16:53:26Z</time>
      </trkpt>
      <trkpt lat="45.68088" lon="4.58701">
        <ele>734.1</ele>
        <time>2021-05-20T16:55:05Z</time>
      </trkpt>
      <trkpt lat="45.68215" lon="4.5882">
        <ele>719</ele>
        <time>2021-05-20T16:58:53Z</time>
      </trkpt>
      <trkpt lat="45.68272" lon="4.58959">
        <ele>704.4</ele>
      </trkpt>
      <trkpt lat="45.68291" lon="4.59065">
        <ele>696.8</ele>
        <time>2021-05-20T16:59:54Z</time>
      </trkpt>
      <trkpt lat="45.68283" lon="4.59175">
        <ele>697.5</ele>
        <time>2021-05-20T17:01:32Z</time>
      </trkpt>
      <trkpt lat="45.68237" lon="4.59244">
        <ele>691.45</ele>
        <time>2021-05-20T17:04:43Z</time>
      </trkpt>
      <trkpt lat="45.68173" lon="4.59296">
        <ele>686.05</ele>
        <time>2021-05-20T17:05:40Z</time>
      </trkpt>
      <trkpt lat="45.68114" lon="4.59428">
        <ele>680.43</ele>
        <time>2021-05-20T17:07:13Z</time>
      </trkpt>
      <trkpt lat="45.68057" lon="4.59562">
        <ele>678.57</ele>
        <time>2021-05-20T17:08:49Z</time>
      </trkpt>
      <trkpt lat="45.67987" lon="4.59683">
        <ele>677.55</ele>
        <time>2021-05-20T17:10:16Z</time>
      </trkpt>
      <trkpt lat="45.67945" lon="4.59734">
        <ele>676.81</ele>
        <time>2021-05-20T17:29:15Z</time>
      </trkpt>
      <trkpt lat="45.67841" lon="4.59745">
        <ele>668.92</ele>
        <time>2021-05-20T17:31:05Z</time>
      </trkpt>
      <trkpt lat="45.67755" lon="4.59838">
        <ele>651.9</ele>
        <time>2021-05-20T17:34:37Z</time>
      </trkpt>
      <trkpt lat="45.6766" lon="4.59913">
        <ele>631.41</ele>
        <time>2021-05-20T17:36:28Z</time>
      </trkpt>
      <trkpt lat="45.67587" lon="4.59908">
        <ele>625.77</ele>
        <time>2021-05-20T17:37:32Z</time>
      </trkpt>
      <trkpt lat="45.67539" lon="4.59986">
        <ele>593.64</ele>
        <time>2021-05-20T17:41:15Z</time>
      </trkpt>
      <trkpt lat="45.6757" lon="4.60133">
        <ele>574.45</ele>
        <time>2021-05-20T17:42:46Z</time>
      </trkpt>
      <trkpt lat="45.67521" lon="4.60241">
        <ele>568.76</ele>
        <time>2021-05-20T17:44:13Z</time>
      </trkpt>
      <trkpt lat="45.67483" lon="4.60329">
        <ele>562.06</ele>
        <time>2021-05-20T17:45:39Z</time>
      </trkpt>
      <trkpt lat="45.67458" lon="4.60395">
        <ele>550</ele>
      </trkpt>
      <trkpt lat="45.67471" lon="4.60479">
        <ele>540.63</ele>
        <time>2021-05-20T17:47:26Z</time>
      </trkpt>
      <trkpt lat="45.67501" lon="4.60621">
        <ele>517.39</ele>
        <time>2021-05-20T17:50:40Z</time>
      </trkpt>
      <trkpt lat="45.67534" lon="4.60715">
        <ele>507.68</ele>
        <time>2021-05-20T17:51:52Z</time>
      </trkpt>
      <trkpt lat="45.67545" lon="4.60869">
        <ele>486.89</ele>
        <time>2021-05-20T17:53:38Z</time>
      </trkpt>
      <trkpt lat="45.67444" lon="4.60921">
        <ele>445.66</ele>
        <time>2021-05-20T17:55:43Z</time>
      </trkpt>
      <trkpt lat="45.67372" lon="4.6081">
        <ele>352.39</ele>
        <time>2021-05-20T17:57:42Z</time>
      </trkpt>
      <trkpt lat="45.67327" lon="4.60846">
        <ele>415.62</ele>
        <time>2021-05-20T18:01:06Z</time>
      </trkpt>
    </trkseg>
  </trk>
</gpx>